sensor_id;sensor_type;location;lat;lon;timestamp;temperature;humidity
12309;DHT22;6217;48.150;17.142;2024-03-08T00:00:18;7.10;79.90
12309;DHT22;6217;48.150;17.142;2024-03-08T00:04:24;7.20;79.90
12309;DHT22;6217;48.150;17.142;2024-03-08T00:08:30;7.10;80.10
12309;DHT22;6217;48.150;17.142;2024-03-08T00:12:44;7.10;80.30
12309;DHT22;6217;48.150;17.142;2024-03-08T00:16:51;7.20;80.30
12309;DHT22;6217;48.150;17.142;2024-03-08T00:20:58;7.20;80.10
12309;DHT22;6217;48.150;17.142;2024-03-08T00:25:05;7.30;80.10
12309;DHT22;6217;48.150;17.142;2024-03-08T00:29:14;7.20;80.40
12309;DHT22;6217;48.150;17.142;2024-03-08T00:33:20;7.10;80.60
12309;DHT22;6217;48.150;17.142;2024-03-08T00:37:27;7.20;81.10
12309;DHT22;6217;48.150;17.142;2024-03-08T00:41:33;7.10;81.20
12309;DHT22;6217;48.150;17.142;2024-03-08T00:45:39;7.20;81.00
12309;DHT22;6217;48.150;17.142;2024-03-08T00:49:47;7.10;81.30
12309;DHT22;6217;48.150;17.142;2024-03-08T00:53:53;7.10;81.30
12309;DHT22;6217;48.150;17.142;2024-03-08T00:57:59;7.10;81.50
12309;DHT22;6217;48.150;17.142;2024-03-08T01:02:05;7.10;81.50
12309;DHT22;6217;48.150;17.142;2024-03-08T01:06:11;7.10;81.40
12309;DHT22;6217;48.150;17.142;2024-03-08T01:10:17;7.10;81.50
12309;DHT22;6217;48.150;17.142;2024-03-08T01:14:24;7.20;81.70
12309;DHT22;6217;48.150;17.142;2024-03-08T01:18:36;7.20;81.80
12309;DHT22;6217;48.150;17.142;2024-03-08T01:22:42;7.20;81.70
12309;DHT22;6217;48.150;17.142;2024-03-08T01:26:48;7.20;82.00
12309;DHT22;6217;48.150;17.142;2024-03-08T01:30:54;7.10;82.30
12309;DHT22;6217;48.150;17.142;2024-03-08T01:35:03;7.10;82.40
12309;DHT22;6217;48.150;17.142;2024-03-08T01:39:09;7.10;82.60
12309;DHT22;6217;48.150;17.142;2024-03-08T01:43:41;7.10;82.70
12309;DHT22;6217;48.150;17.142;2024-03-08T01:47:47;7.20;82.80
12309;DHT22;6217;48.150;17.142;2024-03-08T01:51:54;7.20;82.80
12309;DHT22;6217;48.150;17.142;2024-03-08T01:56:02;7.10;83.10
12309;DHT22;6217;48.150;17.142;2024-03-08T02:00:08;7.10;83.30
12309;DHT22;6217;48.150;17.142;2024-03-08T02:04:15;7.20;83.10
12309;DHT22;6217;48.150;17.142;2024-03-08T02:08:22;7.30;83.60
12309;DHT22;6217;48.150;17.142;2024-03-08T02:12:28;7.30;82.90
12309;DHT22;6217;48.150;17.142;2024-03-08T02:16:34;7.20;83.20
12309;DHT22;6217;48.150;17.142;2024-03-08T02:20:41;7.30;83.30
12309;DHT22;6217;48.150;17.142;2024-03-08T02:24:47;7.20;83.20
12309;DHT22;6217;48.150;17.142;2024-03-08T02:28:53;7.20;83.40
12309;DHT22;6217;48.150;17.142;2024-03-08T02:32:59;7.10;83.60
12309;DHT22;6217;48.150;17.142;2024-03-08T02:37:05;7.20;83.50
12309;DHT22;6217;48.150;17.142;2024-03-08T02:41:11;7.20;83.50
12309;DHT22;6217;48.150;17.142;2024-03-08T02:45:18;7.20;83.60
12309;DHT22;6217;48.150;17.142;2024-03-08T02:49:24;7.10;83.80
12309;DHT22;6217;48.150;17.142;2024-03-08T02:53:30;7.10;83.90
12309;DHT22;6217;48.150;17.142;2024-03-08T02:57:36;7.10;84.10
12309;DHT22;6217;48.150;17.142;2024-03-08T03:01:42;7.00;84.00
12309;DHT22;6217;48.150;17.142;2024-03-08T03:05:48;7.00;84.20
12309;DHT22;6217;48.150;17.142;2024-03-08T03:09:55;7.00;84.20
12309;DHT22;6217;48.150;17.142;2024-03-08T03:14:01;7.00;84.00
12309;DHT22;6217;48.150;17.142;2024-03-08T03:18:07;7.00;84.30
12309;DHT22;6217;48.150;17.142;2024-03-08T03:22:13;7.00;84.50
12309;DHT22;6217;48.150;17.142;2024-03-08T03:26:21;6.90;84.80
12309;DHT22;6217;48.150;17.142;2024-03-08T03:30:27;6.80;84.90
12309;DHT22;6217;48.150;17.142;2024-03-08T03:34:39;6.90;84.80
12309;DHT22;6217;48.150;17.142;2024-03-08T03:38:45;6.90;85.00
12309;DHT22;6217;48.150;17.142;2024-03-08T03:42:51;6.90;85.10
12309;DHT22;6217;48.150;17.142;2024-03-08T03:46:58;6.90;85.20
12309;DHT22;6217;48.150;17.142;2024-03-08T03:51:04;6.90;85.20
12309;DHT22;6217;48.150;17.142;2024-03-08T03:55:10;6.90;85.40
12309;DHT22;6217;48.150;17.142;2024-03-08T03:59:17;6.90;85.40
12309;DHT22;6217;48.150;17.142;2024-03-08T04:03:24;6.80;85.60
12309;DHT22;6217;48.150;17.142;2024-03-08T04:07:30;6.80;85.80
12309;DHT22;6217;48.150;17.142;2024-03-08T04:11:35;6.70;85.80
12309;DHT22;6217;48.150;17.142;2024-03-08T04:15:41;6.70;86.20
12309;DHT22;6217;48.150;17.142;2024-03-08T04:19:50;6.70;86.40
12309;DHT22;6217;48.150;17.142;2024-03-08T04:23:56;6.70;87.10
12309;DHT22;6217;48.150;17.142;2024-03-08T04:28:02;6.70;86.70
12309;DHT22;6217;48.150;17.142;2024-03-08T04:32:08;6.70;86.40
12309;DHT22;6217;48.150;17.142;2024-03-08T04:36:14;6.80;86.10
12309;DHT22;6217;48.150;17.142;2024-03-08T04:40:20;6.80;86.40
12309;DHT22;6217;48.150;17.142;2024-03-08T04:44:26;6.80;86.30
12309;DHT22;6217;48.150;17.142;2024-03-08T04:48:31;6.80;86.30
12309;DHT22;6217;48.150;17.142;2024-03-08T04:52:37;6.90;86.30
12309;DHT22;6217;48.150;17.142;2024-03-08T04:56:43;6.90;86.30
12309;DHT22;6217;48.150;17.142;2024-03-08T05:00:49;6.90;86.40
12309;DHT22;6217;48.150;17.142;2024-03-08T05:04:56;7.00;86.40
12309;DHT22;6217;48.150;17.142;2024-03-08T05:09:02;7.00;86.30
12309;DHT22;6217;48.150;17.142;2024-03-08T05:13:24;7.10;86.20
12309;DHT22;6217;48.150;17.142;2024-03-08T05:17:30;7.10;85.90
12309;DHT22;6217;48.150;17.142;2024-03-08T05:21:36;7.00;86.00
12309;DHT22;6217;48.150;17.142;2024-03-08T05:25:42;7.00;86.30
12309;DHT22;6217;48.150;17.142;2024-03-08T05:29:49;6.90;86.20
12309;DHT22;6217;48.150;17.142;2024-03-08T05:33:55;6.90;87.00
12309;DHT22;6217;48.150;17.142;2024-03-08T05:38:01;6.80;86.30
12309;DHT22;6217;48.150;17.142;2024-03-08T05:42:07;6.90;86.30
12309;DHT22;6217;48.150;17.142;2024-03-08T05:46:16;6.80;86.70
12309;DHT22;6217;48.150;17.142;2024-03-08T05:50:23;6.80;86.80
12309;DHT22;6217;48.150;17.142;2024-03-08T05:54:29;6.80;86.40
12309;DHT22;6217;48.150;17.142;2024-03-08T05:58:35;6.80;86.50
12309;DHT22;6217;48.150;17.142;2024-03-08T06:02:42;6.80;86.80
12309;DHT22;6217;48.150;17.142;2024-03-08T06:06:48;6.70;87.10
12309;DHT22;6217;48.150;17.142;2024-03-08T06:10:53;6.70;87.30
12309;DHT22;6217;48.150;17.142;2024-03-08T06:14:59;6.60;87.70
12309;DHT22;6217;48.150;17.142;2024-03-08T06:19:05;6.50;88.00
12309;DHT22;6217;48.150;17.142;2024-03-08T06:23:11;6.50;88.30
12309;DHT22;6217;48.150;17.142;2024-03-08T06:27:17;6.60;88.50
12309;DHT22;6217;48.150;17.142;2024-03-08T06:31:24;6.70;88.40
12309;DHT22;6217;48.150;17.142;2024-03-08T06:35:30;6.70;88.30
12309;DHT22;6217;48.150;17.142;2024-03-08T06:39:37;6.80;88.20
12309;DHT22;6217;48.150;17.142;2024-03-08T06:43:44;6.80;88.20
12309;DHT22;6217;48.150;17.142;2024-03-08T06:47:51;6.80;88.30
12309;DHT22;6217;48.150;17.142;2024-03-08T06:51:57;6.70;88.60
12309;DHT22;6217;48.150;17.142;2024-03-08T06:56:03;6.70;88.90
12309;DHT22;6217;48.150;17.142;2024-03-08T07:00:10;6.70;89.00
12309;DHT22;6217;48.150;17.142;2024-03-08T07:04:20;6.70;89.10
12309;DHT22;6217;48.150;17.142;2024-03-08T07:08:27;6.80;89.50
12309;DHT22;6217;48.150;17.142;2024-03-08T07:12:33;6.80;89.50
12309;DHT22;6217;48.150;17.142;2024-03-08T07:16:39;6.90;89.40
12309;DHT22;6217;48.150;17.142;2024-03-08T07:20:45;6.90;89.50
12309;DHT22;6217;48.150;17.142;2024-03-08T07:24:51;7.00;89.30
12309;DHT22;6217;48.150;17.142;2024-03-08T07:29:15;7.00;89.10
12309;DHT22;6217;48.150;17.142;2024-03-08T07:33:21;7.10;89.10
12309;DHT22;6217;48.150;17.142;2024-03-08T07:37:28;7.10;89.30
12309;DHT22;6217;48.150;17.142;2024-03-08T07:41:34;7.30;89.40
12309;DHT22;6217;48.150;17.142;2024-03-08T07:45:42;7.30;88.80
12309;DHT22;6217;48.150;17.142;2024-03-08T07:49:48;7.30;89.10
12309;DHT22;6217;48.150;17.142;2024-03-08T07:53:54;7.10;89.40
12309;DHT22;6217;48.150;17.142;2024-03-08T07:58:03;7.00;89.70
12309;DHT22;6217;48.150;17.142;2024-03-08T08:02:11;7.10;90.00
12309;DHT22;6217;48.150;17.142;2024-03-08T08:06:16;7.20;90.00
12309;DHT22;6217;48.150;17.142;2024-03-08T08:10:22;7.20;89.80
12309;DHT22;6217;48.150;17.142;2024-03-08T08:14:30;7.10;89.80
12309;DHT22;6217;48.150;17.142;2024-03-08T08:18:36;7.10;90.00
12309;DHT22;6217;48.150;17.142;2024-03-08T08:22:42;7.20;90.10
12309;DHT22;6217;48.150;17.142;2024-03-08T08:26:48;7.20;90.10
12309;DHT22;6217;48.150;17.142;2024-03-08T08:30:54;7.30;90.00
12309;DHT22;6217;48.150;17.142;2024-03-08T08:35:00;7.30;90.10
12309;DHT22;6217;48.150;17.142;2024-03-08T08:39:08;7.40;90.30
12309;DHT22;6217;48.150;17.142;2024-03-08T08:43:19;7.60;90.20
12309;DHT22;6217;48.150;17.142;2024-03-08T08:47:26;7.70;90.10
12309;DHT22;6217;48.150;17.142;2024-03-08T08:51:32;7.70;90.20
12309;DHT22;6217;48.150;17.142;2024-03-08T08:55:41;7.90;90.10
12309;DHT22;6217;48.150;17.142;2024-03-08T08:59:47;7.90;90.00
12309;DHT22;6217;48.150;17.142;2024-03-08T09:03:53;7.90;90.10
12309;DHT22;6217;48.150;17.142;2024-03-08T09:07:59;8.00;90.20
12309;DHT22;6217;48.150;17.142;2024-03-08T09:12:06;8.10;90.30
12309;DHT22;6217;48.150;17.142;2024-03-08T09:16:12;8.20;90.10
12309;DHT22;6217;48.150;17.142;2024-03-08T09:20:18;8.20;90.00
12309;DHT22;6217;48.150;17.142;2024-03-08T09:24:24;8.20;90.00
12309;DHT22;6217;48.150;17.142;2024-03-08T09:28:30;8.20;90.00
12309;DHT22;6217;48.150;17.142;2024-03-08T09:32:36;8.20;90.00
12309;DHT22;6217;48.150;17.142;2024-03-08T09:36:42;8.20;90.00
12309;DHT22;6217;48.150;17.142;2024-03-08T09:40:48;8.20;89.90
12309;DHT22;6217;48.150;17.142;2024-03-08T09:44:54;8.20;89.90
12309;DHT22;6217;48.150;17.142;2024-03-08T09:49:00;8.10;89.50
12309;DHT22;6217;48.150;17.142;2024-03-08T09:53:07;8.10;90.00
12309;DHT22;6217;48.150;17.142;2024-03-08T09:57:15;8.20;90.10
12309;DHT22;6217;48.150;17.142;2024-03-08T10:01:21;8.40;90.00
12309;DHT22;6217;48.150;17.142;2024-03-08T10:05:27;8.60;89.90
12309;DHT22;6217;48.150;17.142;2024-03-08T10:09:34;8.80;89.70
12309;DHT22;6217;48.150;17.142;2024-03-08T10:13:39;9.10;88.80
12309;DHT22;6217;48.150;17.142;2024-03-08T10:17:46;9.40;88.80
12309;DHT22;6217;48.150;17.142;2024-03-08T10:21:52;9.60;88.60
12309;DHT22;6217;48.150;17.142;2024-03-08T10:26:12;9.80;87.60
12309;DHT22;6217;48.150;17.142;2024-03-08T10:30:20;9.70;86.80
12309;DHT22;6217;48.150;17.142;2024-03-08T10:34:27;9.80;87.30
12309;DHT22;6217;48.150;17.142;2024-03-08T10:38:39;9.70;87.20
12309;DHT22;6217;48.150;17.142;2024-03-08T10:42:50;9.80;87.80
12309;DHT22;6217;48.150;17.142;2024-03-08T10:51:46;9.70;87.00
12309;DHT22;6217;48.150;17.142;2024-03-08T10:55:56;9.60;87.10
12309;DHT22;6217;48.150;17.142;2024-03-08T11:00:03;9.70;86.60
12309;DHT22;6217;48.150;17.142;2024-03-08T11:04:13;9.60;86.90
12309;DHT22;6217;48.150;17.142;2024-03-08T11:08:19;9.70;86.80
12309;DHT22;6217;48.150;17.142;2024-03-08T11:12:27;9.80;86.00
12309;DHT22;6217;48.150;17.142;2024-03-08T11:16:38;9.90;85.70
12309;DHT22;6217;48.150;17.142;2024-03-08T11:20:47;9.90;85.90
12309;DHT22;6217;48.150;17.142;2024-03-08T11:25:01;9.90;86.00
12309;DHT22;6217;48.150;17.142;2024-03-08T11:33:46;9.80;85.40
12309;DHT22;6217;48.150;17.142;2024-03-08T11:37:53;9.80;85.40
12309;DHT22;6217;48.150;17.142;2024-03-08T11:41:59;9.80;85.00
12309;DHT22;6217;48.150;17.142;2024-03-08T11:46:09;9.70;85.40
12309;DHT22;6217;48.150;17.142;2024-03-08T11:50:16;9.70;84.70
12309;DHT22;6217;48.150;17.142;2024-03-08T11:54:24;9.90;84.20
12309;DHT22;6217;48.150;17.142;2024-03-08T11:58:30;10.10;84.40
12309;DHT22;6217;48.150;17.142;2024-03-08T12:02:36;10.20;83.50
12309;DHT22;6217;48.150;17.142;2024-03-08T12:06:43;9.90;83.40
12309;DHT22;6217;48.150;17.142;2024-03-08T12:10:53;9.90;83.70
12309;DHT22;6217;48.150;17.142;2024-03-08T12:15:05;9.80;83.30
12309;DHT22;6217;48.150;17.142;2024-03-08T12:19:11;9.80;83.50
12309;DHT22;6217;48.150;17.142;2024-03-08T12:23:17;9.80;83.70
12309;DHT22;6217;48.150;17.142;2024-03-08T12:27:26;9.90;83.10
12309;DHT22;6217;48.150;17.142;2024-03-08T12:31:34;9.80;82.90
12309;DHT22;6217;48.150;17.142;2024-03-08T12:35:53;9.70;82.50
12309;DHT22;6217;48.150;17.142;2024-03-08T12:40:00;9.80;82.40
12309;DHT22;6217;48.150;17.142;2024-03-08T12:44:06;9.80;81.90
12309;DHT22;6217;48.150;17.142;2024-03-08T12:48:14;9.90;81.80
12309;DHT22;6217;48.150;17.142;2024-03-08T12:52:20;10.00;81.20
12309;DHT22;6217;48.150;17.142;2024-03-08T12:56:36;10.20;81.10
12309;DHT22;6217;48.150;17.142;2024-03-08T13:00:42;10.20;80.20
12309;DHT22;6217;48.150;17.142;2024-03-08T13:04:49;10.10;80.30
12309;DHT22;6217;48.150;17.142;2024-03-08T13:09:02;10.00;80.40
12309;DHT22;6217;48.150;17.142;2024-03-08T13:13:11;10.00;81.10
12309;DHT22;6217;48.150;17.142;2024-03-08T13:17:18;10.10;80.60
12309;DHT22;6217;48.150;17.142;2024-03-08T13:21:24;10.00;80.30
12309;DHT22;6217;48.150;17.142;2024-03-08T13:25:33;10.10;80.50
12309;DHT22;6217;48.150;17.142;2024-03-08T13:29:38;10.20;80.10
12309;DHT22;6217;48.150;17.142;2024-03-08T13:33:45;10.20;80.10
12309;DHT22;6217;48.150;17.142;2024-03-08T13:37:52;10.30;80.00
12309;DHT22;6217;48.150;17.142;2024-03-08T13:41:58;10.10;79.80
12309;DHT22;6217;48.150;17.142;2024-03-08T13:46:04;10.00;80.40
12309;DHT22;6217;48.150;17.142;2024-03-08T13:50:11;9.90;80.40
12309;DHT22;6217;48.150;17.142;2024-03-08T13:54:17;9.80;80.60
12309;DHT22;6217;48.150;17.142;2024-03-08T13:58:23;9.80;80.90
12309;DHT22;6217;48.150;17.142;2024-03-08T14:02:29;10.00;80.80
12309;DHT22;6217;48.150;17.142;2024-03-08T14:06:36;10.20;80.60
12309;DHT22;6217;48.150;17.142;2024-03-08T14:10:43;10.30;80.00
12309;DHT22;6217;48.150;17.142;2024-03-08T14:14:53;10.30;79.80
12309;DHT22;6217;48.150;17.142;2024-03-08T14:18:59;10.30;79.60
12309;DHT22;6217;48.150;17.142;2024-03-08T14:23:09;10.40;79.80
12309;DHT22;6217;48.150;17.142;2024-03-08T14:27:16;10.50;79.50
12309;DHT22;6217;48.150;17.142;2024-03-08T14:31:24;10.60;79.30
12309;DHT22;6217;48.150;17.142;2024-03-08T14:35:31;10.70;79.00
12309;DHT22;6217;48.150;17.142;2024-03-08T14:39:37;10.80;78.30
12309;DHT22;6217;48.150;17.142;2024-03-08T14:43:43;10.60;78.50
12309;DHT22;6217;48.150;17.142;2024-03-08T14:47:50;10.40;78.80
12309;DHT22;6217;48.150;17.142;2024-03-08T14:51:56;10.40;79.50
12309;DHT22;6217;48.150;17.142;2024-03-08T14:56:08;10.30;78.50
12309;DHT22;6217;48.150;17.142;2024-03-08T15:00:14;10.10;78.60
12309;DHT22;6217;48.150;17.142;2024-03-08T15:04:32;9.90;78.70
12309;DHT22;6217;48.150;17.142;2024-03-08T15:08:41;9.80;78.60
12309;DHT22;6217;48.150;17.142;2024-03-08T15:12:47;9.70;78.00
12309;DHT22;6217;48.150;17.142;2024-03-08T15:16:53;9.60;77.70
12309;DHT22;6217;48.150;17.142;2024-03-08T15:21:00;9.50;77.70
12309;DHT22;6217;48.150;17.142;2024-03-08T15:25:06;9.40;77.80
12309;DHT22;6217;48.150;17.142;2024-03-08T15:29:13;9.50;78.00
12309;DHT22;6217;48.150;17.142;2024-03-08T15:33:19;9.60;77.80
12309;DHT22;6217;48.150;17.142;2024-03-08T15:37:29;9.70;77.60
12309;DHT22;6217;48.150;17.142;2024-03-08T15:41:35;9.60;77.30
12309;DHT22;6217;48.150;17.142;2024-03-08T15:45:41;9.80;77.50
12309;DHT22;6217;48.150;17.142;2024-03-08T15:49:47;9.90;76.90
12309;DHT22;6217;48.150;17.142;2024-03-08T15:53:53;9.80;76.90
12309;DHT22;6217;48.150;17.142;2024-03-08T15:58:01;9.60;76.90
12309;DHT22;6217;48.150;17.142;2024-03-08T16:02:07;9.50;77.40
12309;DHT22;6217;48.150;17.142;2024-03-08T16:06:13;9.50;77.60
12309;DHT22;6217;48.150;17.142;2024-03-08T16:10:19;9.40;77.60
12309;DHT22;6217;48.150;17.142;2024-03-08T16:14:25;9.40;77.60
12309;DHT22;6217;48.150;17.142;2024-03-08T16:18:31;9.30;77.50
12309;DHT22;6217;48.150;17.142;2024-03-08T16:22:43;9.20;77.60
12309;DHT22;6217;48.150;17.142;2024-03-08T16:26:52;9.20;77.90
12309;DHT22;6217;48.150;17.142;2024-03-08T16:30:58;9.30;78.20
12309;DHT22;6217;48.150;17.142;2024-03-08T16:35:04;9.30;78.10
12309;DHT22;6217;48.150;17.142;2024-03-08T16:39:16;9.30;78.50
12309;DHT22;6217;48.150;17.142;2024-03-08T16:43:22;9.30;79.00
12309;DHT22;6217;48.150;17.142;2024-03-08T16:47:27;9.20;79.20
12309;DHT22;6217;48.150;17.142;2024-03-08T16:51:33;9.20;79.60
12309;DHT22;6217;48.150;17.142;2024-03-08T16:55:39;9.00;80.20
12309;DHT22;6217;48.150;17.142;2024-03-08T16:59:45;9.00;80.90
12309;DHT22;6217;48.150;17.142;2024-03-08T17:03:51;9.00;81.50
12309;DHT22;6217;48.150;17.142;2024-03-08T17:07:59;9.00;81.80
12309;DHT22;6217;48.150;17.142;2024-03-08T17:12:06;8.90;82.30
12309;DHT22;6217;48.150;17.142;2024-03-08T17:16:16;9.00;82.90
12309;DHT22;6217;48.150;17.142;2024-03-08T17:20:22;9.00;83.00
12309;DHT22;6217;48.150;17.142;2024-03-08T17:24:30;9.00;83.20
12309;DHT22;6217;48.150;17.142;2024-03-08T17:28:37;8.90;83.50
12309;DHT22;6217;48.150;17.142;2024-03-08T17:32:47;8.80;83.80
12309;DHT22;6217;48.150;17.142;2024-03-08T17:37:00;8.70;84.40
12309;DHT22;6217;48.150;17.142;2024-03-08T17:41:06;8.70;84.50
12309;DHT22;6217;48.150;17.142;2024-03-08T17:45:12;8.70;84.80
12309;DHT22;6217;48.150;17.142;2024-03-08T17:49:19;8.80;84.90
12309;DHT22;6217;48.150;17.142;2024-03-08T17:53:25;8.70;85.30
12309;DHT22;6217;48.150;17.142;2024-03-08T17:57:31;8.70;85.70
12309;DHT22;6217;48.150;17.142;2024-03-08T18:01:37;8.70;85.40
12309;DHT22;6217;48.150;17.142;2024-03-08T18:05:45;8.60;85.60
12309;DHT22;6217;48.150;17.142;2024-03-08T18:09:51;8.70;85.90
12309;DHT22;6217;48.150;17.142;2024-03-08T18:13:57;8.60;85.90
12309;DHT22;6217;48.150;17.142;2024-03-08T18:18:03;8.60;86.10
12309;DHT22;6217;48.150;17.142;2024-03-08T18:22:10;8.60;86.30
12309;DHT22;6217;48.150;17.142;2024-03-08T18:26:17;8.60;86.40
12309;DHT22;6217;48.150;17.142;2024-03-08T18:30:24;8.70;86.30
12309;DHT22;6217;48.150;17.142;2024-03-08T18:34:32;8.60;86.50
12309;DHT22;6217;48.150;17.142;2024-03-08T18:38:38;8.60;86.70
12309;DHT22;6217;48.150;17.142;2024-03-08T18:42:44;8.60;86.70
12309;DHT22;6217;48.150;17.142;2024-03-08T18:46:50;8.60;86.90
12309;DHT22;6217;48.150;17.142;2024-03-08T18:51:02;8.60;87.20
12309;DHT22;6217;48.150;17.142;2024-03-08T18:55:08;8.50;87.40
12309;DHT22;6217;48.150;17.142;2024-03-08T18:59:37;8.50;87.30
12309;DHT22;6217;48.150;17.142;2024-03-08T19:03:44;8.50;87.40
12309;DHT22;6217;48.150;17.142;2024-03-08T19:07:54;8.40;87.70
12309;DHT22;6217;48.150;17.142;2024-03-08T19:12:00;8.40;88.50
12309;DHT22;6217;48.150;17.142;2024-03-08T19:16:13;8.40;88.90
12309;DHT22;6217;48.150;17.142;2024-03-08T19:20:24;8.30;88.90
12309;DHT22;6217;48.150;17.142;2024-03-08T19:24:32;8.30;89.40
12309;DHT22;6217;48.150;17.142;2024-03-08T19:28:41;8.30;89.50
12309;DHT22;6217;48.150;17.142;2024-03-08T19:32:47;8.30;89.80
12309;DHT22;6217;48.150;17.142;2024-03-08T19:36:53;8.20;89.80
12309;DHT22;6217;48.150;17.142;2024-03-08T19:40:59;8.10;90.10
12309;DHT22;6217;48.150;17.142;2024-03-08T19:45:05;8.10;90.30
12309;DHT22;6217;48.150;17.142;2024-03-08T19:49:15;8.00;90.70
12309;DHT22;6217;48.150;17.142;2024-03-08T19:53:22;8.00;90.90
12309;DHT22;6217;48.150;17.142;2024-03-08T19:57:28;7.90;90.90
12309;DHT22;6217;48.150;17.142;2024-03-08T20:01:36;7.80;91.20
12309;DHT22;6217;48.150;17.142;2024-03-08T20:05:42;7.70;91.40
12309;DHT22;6217;48.150;17.142;2024-03-08T20:09:50;7.70;91.70
12309;DHT22;6217;48.150;17.142;2024-03-08T20:13:56;7.60;92.00
12309;DHT22;6217;48.150;17.142;2024-03-08T20:18:04;7.60;92.00
12309;DHT22;6217;48.150;17.142;2024-03-08T20:22:11;7.60;92.10
12309;DHT22;6217;48.150;17.142;2024-03-08T20:26:17;7.70;92.10
12309;DHT22;6217;48.150;17.142;2024-03-08T20:30:28;7.70;92.40
12309;DHT22;6217;48.150;17.142;2024-03-08T20:34:35;7.70;92.30
12309;DHT22;6217;48.150;17.142;2024-03-08T20:38:42;7.70;92.40
12309;DHT22;6217;48.150;17.142;2024-03-08T20:42:52;7.70;92.40
12309;DHT22;6217;48.150;17.142;2024-03-08T20:46:58;7.80;92.40
12309;DHT22;6217;48.150;17.142;2024-03-08T20:51:04;7.80;92.40
12309;DHT22;6217;48.150;17.142;2024-03-08T20:55:12;7.80;92.50
12309;DHT22;6217;48.150;17.142;2024-03-08T20:59:19;7.80;92.40
12309;DHT22;6217;48.150;17.142;2024-03-08T21:03:25;7.80;92.60
12309;DHT22;6217;48.150;17.142;2024-03-08T21:07:32;7.80;92.60
12309;DHT22;6217;48.150;17.142;2024-03-08T21:11:42;7.80;92.70
12309;DHT22;6217;48.150;17.142;2024-03-08T21:15:49;7.70;92.90
12309;DHT22;6217;48.150;17.142;2024-03-08T21:19:55;7.70;93.00
12309;DHT22;6217;48.150;17.142;2024-03-08T21:24:02;7.70;93.10
12309;DHT22;6217;48.150;17.142;2024-03-08T21:28:08;7.70;93.10
12309;DHT22;6217;48.150;17.142;2024-03-08T21:32:14;7.60;93.30
12309;DHT22;6217;48.150;17.142;2024-03-08T21:36:20;7.60;93.30
12309;DHT22;6217;48.150;17.142;2024-03-08T21:40:28;7.60;93.50
12309;DHT22;6217;48.150;17.142;2024-03-08T21:44:39;7.60;93.50
12309;DHT22;6217;48.150;17.142;2024-03-08T21:48:45;7.70;93.50
12309;DHT22;6217;48.150;17.142;2024-03-08T21:52:51;7.60;93.50
12309;DHT22;6217;48.150;17.142;2024-03-08T21:56:57;7.60;93.60
12309;DHT22;6217;48.150;17.142;2024-03-08T22:01:04;7.60;93.60
12309;DHT22;6217;48.150;17.142;2024-03-08T22:05:12;7.60;93.70
12309;DHT22;6217;48.150;17.142;2024-03-08T22:09:28;7.60;93.70
12309;DHT22;6217;48.150;17.142;2024-03-08T22:13:35;7.60;93.80
12309;DHT22;6217;48.150;17.142;2024-03-08T22:17:41;7.50;93.70
12309;DHT22;6217;48.150;17.142;2024-03-08T22:21:47;7.50;93.70
12309;DHT22;6217;48.150;17.142;2024-03-08T22:25:54;7.30;93.90
12309;DHT22;6217;48.150;17.142;2024-03-08T22:30:00;7.30;94.20
12309;DHT22;6217;48.150;17.142;2024-03-08T22:34:06;7.30;94.30
12309;DHT22;6217;48.150;17.142;2024-03-08T22:38:12;7.30;94.20
12309;DHT22;6217;48.150;17.142;2024-03-08T22:42:18;7.30;94.30
12309;DHT22;6217;48.150;17.142;2024-03-08T22:46:24;7.30;94.10
12309;DHT22;6217;48.150;17.142;2024-03-08T22:50:30;7.20;94.30
12309;DHT22;6217;48.150;17.142;2024-03-08T22:54:36;7.20;94.30
12309;DHT22;6217;48.150;17.142;2024-03-08T22:58:42;7.30;94.50
12309;DHT22;6217;48.150;17.142;2024-03-08T23:02:50;7.40;94.30
12309;DHT22;6217;48.150;17.142;2024-03-08T23:06:57;7.40;94.10
12309;DHT22;6217;48.150;17.142;2024-03-08T23:11:03;7.50;94.20
12309;DHT22;6217;48.150;17.142;2024-03-08T23:15:10;7.40;94.10
12309;DHT22;6217;48.150;17.142;2024-03-08T23:19:19;7.40;94.10
12309;DHT22;6217;48.150;17.142;2024-03-08T23:23:25;7.30;94.00
12309;DHT22;6217;48.150;17.142;2024-03-08T23:27:31;7.40;94.00
12309;DHT22;6217;48.150;17.142;2024-03-08T23:31:38;7.30;93.90
12309;DHT22;6217;48.150;17.142;2024-03-08T23:35:44;7.10;93.90
12309;DHT22;6217;48.150;17.142;2024-03-08T23:39:50;7.00;94.00
12309;DHT22;6217;48.150;17.142;2024-03-08T23:43:56;6.90;94.10
12309;DHT22;6217;48.150;17.142;2024-03-08T23:48:02;6.90;94.20
12309;DHT22;6217;48.150;17.142;2024-03-08T23:52:08;6.90;94.10
12309;DHT22;6217;48.150;17.142;2024-03-08T23:56:15;7.00;94.00
